sensor_id;sensor_type;location;lat;lon;timestamp;pressure;altitude;pressure_sealevel;temperature;humidity
23643;BME280;11998;55.788;37.572;2023-06-26T00:00:35;98424.59;;;92.19;10.29
23643;BME280;11998;55.788;37.572;2023-06-26T00:01:37;98432.16;;;93.15;10.22
23643;BME280;11998;55.788;37.572;2023-06-26T00:02:40;98435.69;;;93.71;10.30
23643;BME280;11998;55.788;37.572;2023-06-26T00:03:40;98452.13;;;94.20;10.14
23643;BME280;11998;55.788;37.572;2023-06-26T00:04:42;98450.41;;;95.03;9.77
23643;BME280;11998;55.788;37.572;2023-06-26T00:05:43;98457.28;;;95.15;10.13
23643;BME280;11998;55.788;37.572;2023-06-26T00:06:44;98462.78;;;95.07;9.93
23643;BME280;11998;55.788;37.572;2023-06-26T00:07:44;98457.50;;;94.74;10.21
23643;BME280;11998;55.788;37.572;2023-06-26T00:08:45;98448.69;;;93.64;10.23
23643;BME280;11998;55.788;37.572;2023-06-26T00:09:46;98447.22;;;93.75;10.38
23643;BME280;11998;55.788;37.572;2023-06-26T00:10:46;98443.47;;;93.64;10.16
23643;BME280;11998;55.788;37.572;2023-06-26T00:11:47;98443.25;;;93.22;10.33
23643;BME280;11998;55.788;37.572;2023-06-26T00:12:47;98441.31;;;93.36;10.23
23643;BME280;11998;55.788;37.572;2023-06-26T00:13:48;98438.69;;;94.12;10.00
23643;BME280;11998;55.788;37.572;2023-06-26T00:14:49;98437.81;;;93.49;10.06
23643;BME280;11998;55.788;37.572;2023-06-26T00:15:50;98443.28;;;93.72;10.25
23643;BME280;11998;55.788;37.572;2023-06-26T00:16:50;98440.38;;;93.93;10.35
23643;BME280;11998;55.788;37.572;2023-06-26T00:17:51;98442.28;;;94.72;10.30
23643;BME280;11998;55.788;37.572;2023-06-26T00:18:52;98454.44;;;95.17;9.94
23643;BME280;11998;55.788;37.572;2023-06-26T00:19:53;98459.50;;;95.15;10.07
23643;BME280;11998;55.788;37.572;2023-06-26T00:20:54;98447.22;;;93.75;10.33
23643;BME280;11998;55.788;37.572;2023-06-26T00:21:54;98456.44;;;94.39;9.86
23643;BME280;11998;55.788;37.572;2023-06-26T00:22:55;98450.72;;;93.81;10.31
23643;BME280;11998;55.788;37.572;2023-06-26T00:23:59;98450.00;;;93.92;9.85
23643;BME280;11998;55.788;37.572;2023-06-26T00:24:59;98448.66;;;94.88;10.05
23643;BME280;11998;55.788;37.572;2023-06-26T00:26:02;98456.75;;;94.86;10.26
23643;BME280;11998;55.788;37.572;2023-06-26T00:27:02;98445.75;;;93.35;10.06
23643;BME280;11998;55.788;37.572;2023-06-26T00:28:03;98441.56;;;94.10;10.00
23643;BME280;11998;55.788;37.572;2023-06-26T00:29:04;98451.69;;;94.67;10.09
23643;BME280;11998;55.788;37.572;2023-06-26T00:30:05;98452.25;;;95.29;9.80
23643;BME280;11998;55.788;37.572;2023-06-26T00:31:05;98462.72;;;95.28;10.27
23643;BME280;11998;55.788;37.572;2023-06-26T00:32:06;98455.22;;;95.62;9.90
23643;BME280;11998;55.788;37.572;2023-06-26T00:33:07;98448.44;;;94.96;10.39
23643;BME280;11998;55.788;37.572;2023-06-26T00:34:13;98459.09;;;95.42;10.35
23643;BME280;11998;55.788;37.572;2023-06-26T00:35:15;98449.16;;;94.42;10.12
23643;BME280;11998;55.788;37.572;2023-06-26T00:36:15;98449.66;;;94.38;9.87
23643;BME280;11998;55.788;37.572;2023-06-26T00:37:16;98449.88;;;94.95;9.72
23643;BME280;11998;55.788;37.572;2023-06-26T00:38:17;98448.44;;;94.74;10.16
23643;BME280;11998;55.788;37.572;2023-06-26T00:39:17;98438.38;;;94.39;10.29
23643;BME280;11998;55.788;37.572;2023-06-26T00:40:18;98438.84;;;94.45;10.09
23643;BME280;11998;55.788;37.572;2023-06-26T00:41:19;98444.28;;;93.55;10.41
23643;BME280;11998;55.788;37.572;2023-06-26T00:42:19;98444.81;;;94.23;10.21
23643;BME280;11998;55.788;37.572;2023-06-26T00:43:20;98449.31;;;94.44;10.32
23643;BME280;11998;55.788;37.572;2023-06-26T00:44:21;98448.69;;;95.00;10.04
23643;BME280;11998;55.788;37.572;2023-06-26T00:45:21;98458.31;;;95.41;9.82
23643;BME280;11998;55.788;37.572;2023-06-26T00:46:22;98456.09;;;95.09;9.82
23643;BME280;11998;55.788;37.572;2023-06-26T00:47:24;98461.50;;;95.78;10.18
23643;BME280;11998;55.788;37.572;2023-06-26T00:48:26;98461.19;;;96.07;9.83
23643;BME280;11998;55.788;37.572;2023-06-26T00:49:27;98459.94;;;96.47;10.04
23643;BME280;11998;55.788;37.572;2023-06-26T00:50:28;98463.09;;;96.50;10.05
23643;BME280;11998;55.788;37.572;2023-06-26T00:51:30;98473.31;;;96.68;9.85
23643;BME280;11998;55.788;37.572;2023-06-26T00:52:31;98473.31;;;96.68;9.77
23643;BME280;11998;55.788;37.572;2023-06-26T00:53:32;98472.97;;;96.87;10.01
23643;BME280;11998;55.788;37.572;2023-06-26T00:54:33;98474.56;;;96.88;9.97
23643;BME280;11998;55.788;37.572;2023-06-26T00:55:34;98462.06;;;96.57;10.06
23643;BME280;11998;55.788;37.572;2023-06-26T00:56:34;98455.13;;;96.42;10.11
23643;BME280;11998;55.788;37.572;2023-06-26T00:57:35;98466.28;;;96.28;10.19
23643;BME280;11998;55.788;37.572;2023-06-26T00:58:36;98458.13;;;96.42;9.97
23643;BME280;11998;55.788;37.572;2023-06-26T00:59:37;98452.66;;;95.80;10.55
23643;BME280;11998;55.788;37.572;2023-06-26T01:00:38;98454.72;;;96.25;10.19
23643;BME280;11998;55.788;37.572;2023-06-26T01:01:39;98452.88;;;96.55;10.09
23643;BME280;11998;55.788;37.572;2023-06-26T01:02:39;98448.66;;;96.60;10.10
23643;BME280;11998;55.788;37.572;2023-06-26T01:03:40;98454.91;;;96.64;10.00
23643;BME280;11998;55.788;37.572;2023-06-26T01:04:41;98453.63;;;96.67;10.09
23643;BME280;11998;55.788;37.572;2023-06-26T01:05:48;98455.13;;;96.91;9.91
23643;BME280;11998;55.788;37.572;2023-06-26T01:06:52;98442.47;;;95.07;10.21
23643;BME280;11998;55.788;37.572;2023-06-26T01:07:53;98439.97;;;95.04;9.98
23643;BME280;11998;55.788;37.572;2023-06-26T01:08:54;98432.88;;;95.32;10.16
23643;BME280;11998;55.788;37.572;2023-06-26T01:09:55;98442.94;;;95.94;10.31
23643;BME280;11998;55.788;37.572;2023-06-26T01:10:56;98445.03;;;96.03;9.98
23643;BME280;11998;55.788;37.572;2023-06-26T01:11:58;98436.25;;;94.94;9.90
23643;BME280;11998;55.788;37.572;2023-06-26T01:12:59;98440.53;;;95.57;9.77
23643;BME280;11998;55.788;37.572;2023-06-26T01:14:00;98438.28;;;94.79;9.87
23643;BME280;11998;55.788;37.572;2023-06-26T01:15:02;98436.47;;;95.19;9.89
23643;BME280;11998;55.788;37.572;2023-06-26T01:16:03;98426.66;;;93.71;10.37
23643;BME280;11998;55.788;37.572;2023-06-26T01:17:05;98435.81;;;94.66;10.26
23643;BME280;11998;55.788;37.572;2023-06-26T01:18:07;98432.34;;;94.70;9.90
23643;BME280;11998;55.788;37.572;2023-06-26T01:19:11;98432.47;;;94.93;10.25
23643;BME280;11998;55.788;37.572;2023-06-26T01:20:14;98443.34;;;95.31;10.16
23643;BME280;11998;55.788;37.572;2023-06-26T01:21:17;98444.19;;;95.55;10.20
23643;BME280;11998;55.788;37.572;2023-06-26T01:22:27;98443.16;;;95.74;9.75
23643;BME280;11998;55.788;37.572;2023-06-26T01:23:34;98446.34;;;96.00;10.19
23643;BME280;11998;55.788;37.572;2023-06-26T01:24:39;98447.72;;;95.52;10.10
23643;BME280;11998;55.788;37.572;2023-06-26T01:27:08;98434.53;;;94.91;10.07
23643;BME280;11998;55.788;37.572;2023-06-26T01:28:09;98443.78;;;95.49;9.83
23643;BME280;11998;55.788;37.572;2023-06-26T01:29:11;98444.75;;;95.75;10.10
23643;BME280;11998;55.788;37.572;2023-06-26T01:30:13;98436.78;;;95.02;9.79
23643;BME280;11998;55.788;37.572;2023-06-26T01:31:16;98443.53;;;95.57;10.25
23643;BME280;11998;55.788;37.572;2023-06-26T01:32:18;98453.44;;;96.04;10.21
23643;BME280;11998;55.788;37.572;2023-06-26T01:33:19;98453.81;;;96.34;9.79
23643;BME280;11998;55.788;37.572;2023-06-26T01:34:19;98449.66;;;96.04;9.78
23643;BME280;11998;55.788;37.572;2023-06-26T01:35:21;98453.41;;;95.69;9.98
23643;BME280;11998;55.788;37.572;2023-06-26T01:36:22;98455.53;;;96.02;9.87
23643;BME280;11998;55.788;37.572;2023-06-26T01:37:22;98452.09;;;95.96;10.27
23643;BME280;11998;55.788;37.572;2023-06-26T01:38:23;98459.97;;;96.12;10.18
23643;BME280;11998;55.788;37.572;2023-06-26T01:39:24;98453.94;;;96.24;10.20
23643;BME280;11998;55.788;37.572;2023-06-26T01:40:25;98461.41;;;96.46;9.88
23643;BME280;11998;55.788;37.572;2023-06-26T01:41:25;98465.44;;;96.63;9.73
23643;BME280;11998;55.788;37.572;2023-06-26T01:42:26;98461.50;;;96.72;9.78
23643;BME280;11998;55.788;37.572;2023-06-26T01:43:43;98458.88;;;96.66;10.40
23643;BME280;11998;55.788;37.572;2023-06-26T01:44:51;98462.00;;;96.68;10.24
23643;BME280;11998;55.788;37.572;2023-06-26T01:45:58;98454.91;;;96.64;9.94
23643;BME280;11998;55.788;37.572;2023-06-26T01:47:02;98462.28;;;96.61;10.01
23643;BME280;11998;55.788;37.572;2023-06-26T01:48:06;98453.16;;;96.00;10.36
23643;BME280;11998;55.788;37.572;2023-06-26T01:49:41;98448.84;;;95.92;9.84
23643;BME280;11998;55.788;37.572;2023-06-26T01:50:44;98452.34;;;96.46;10.21
23643;BME280;11998;55.788;37.572;2023-06-26T01:52:07;98457.88;;;96.38;10.42
23643;BME280;11998;55.788;37.572;2023-06-26T01:53:11;98452.56;;;96.62;10.11
23643;BME280;11998;55.788;37.572;2023-06-26T01:54:18;98454.69;;;96.60;10.01
23643;BME280;11998;55.788;37.572;2023-06-26T01:56:29;98453.78;;;96.94;9.97
23643;BME280;11998;55.788;37.572;2023-06-26T01:57:31;98457.38;;;97.16;10.04
23643;BME280;11998;55.788;37.572;2023-06-26T01:58:31;98467.97;;;97.29;10.10
23643;BME280;11998;55.788;37.572;2023-06-26T01:59:34;98469.16;;;97.24;9.92
23643;BME280;11998;55.788;37.572;2023-06-26T02:00:36;98469.88;;;97.36;10.10
23643;BME280;11998;55.788;37.572;2023-06-26T02:01:37;98467.09;;;97.40;9.84
23643;BME280;11998;55.788;37.572;2023-06-26T02:02:37;98463.59;;;97.32;9.88
23643;BME280;11998;55.788;37.572;2023-06-26T02:03:38;98457.22;;;97.40;9.82
23643;BME280;11998;55.788;37.572;2023-06-26T02:04:39;98461.63;;;97.50;10.27
23643;BME280;11998;55.788;37.572;2023-06-26T02:05:39;98464.34;;;97.58;10.07
23643;BME280;11998;55.788;37.572;2023-06-26T02:06:41;98464.38;;;97.72;9.99
23643;BME280;11998;55.788;37.572;2023-06-26T02:07:41;98463.03;;;97.75;9.96
23643;BME280;11998;55.788;37.572;2023-06-26T02:08:42;98469.25;;;97.51;9.98
23643;BME280;11998;55.788;37.572;2023-06-26T02:09:43;98462.25;;;97.61;10.32
23643;BME280;11998;55.788;37.572;2023-06-26T02:10:43;98459.97;;;97.22;10.03
23643;BME280;11998;55.788;37.572;2023-06-26T02:11:44;98457.38;;;97.42;9.93
23643;BME280;11998;55.788;37.572;2023-06-26T02:12:44;98458.53;;;97.62;9.76
23643;BME280;11998;55.788;37.572;2023-06-26T02:13:45;98462.16;;;97.86;10.12
23643;BME280;11998;55.788;37.572;2023-06-26T02:14:46;98467.78;;;97.92;10.05
23643;BME280;11998;55.788;37.572;2023-06-26T02:15:46;98456.50;;;97.53;9.99
23643;BME280;11998;55.788;37.572;2023-06-26T02:16:47;98461.97;;;97.82;9.95
23643;BME280;11998;55.788;37.572;2023-06-26T02:17:47;98457.16;;;97.51;10.11
23643;BME280;11998;55.788;37.572;2023-06-26T02:18:48;98444.50;;;96.06;9.83
23643;BME280;11998;55.788;37.572;2023-06-26T02:19:49;98442.41;;;96.21;10.21
23643;BME280;11998;55.788;37.572;2023-06-26T02:20:50;98447.19;;;96.49;10.43
23643;BME280;11998;55.788;37.572;2023-06-26T02:21:50;98447.38;;;96.88;10.12
23643;BME280;11998;55.788;37.572;2023-06-26T02:22:51;98450.19;;;97.10;10.02
23643;BME280;11998;55.788;37.572;2023-06-26T02:23:51;98449.38;;;97.35;9.99
23643;BME280;11998;55.788;37.572;2023-06-26T02:24:52;98450.75;;;96.57;10.07
23643;BME280;11998;55.788;37.572;2023-06-26T02:25:53;98445.75;;;96.62;10.10
23643;BME280;11998;55.788;37.572;2023-06-26T02:26:53;98437.38;;;95.55;9.96
23643;BME280;11998;55.788;37.572;2023-06-26T02:27:54;98433.78;;;96.03;9.79
23643;BME280;11998;55.788;37.572;2023-06-26T02:28:55;98433.41;;;95.52;10.31
23643;BME280;11998;55.788;37.572;2023-06-26T02:29:55;98438.91;;;95.32;9.92
23643;BME280;11998;55.788;37.572;2023-06-26T02:30:58;98430.81;;;94.59;10.37
23643;BME280;11998;55.788;37.572;2023-06-26T02:31:58;98426.56;;;94.74;10.47
23643;BME280;11998;55.788;37.572;2023-06-26T02:32:59;98418.16;;;93.67;9.99
23643;BME280;11998;55.788;37.572;2023-06-26T02:33:59;98405.66;;;92.26;10.10
23643;BME280;11998;55.788;37.572;2023-06-26T02:35:00;98402.16;;;91.29;10.28
23643;BME280;11998;55.788;37.572;2023-06-26T02:36:01;98393.41;;;90.97;10.60
23643;BME280;11998;55.788;37.572;2023-06-26T02:37:02;98408.78;;;91.72;10.35
23643;BME280;11998;55.788;37.572;2023-06-26T02:38:05;98407.06;;;92.25;10.38
23643;BME280;11998;55.788;37.572;2023-06-26T02:39:05;98415.38;;;93.02;10.43
23643;BME280;11998;55.788;37.572;2023-06-26T02:40:06;98421.50;;;92.36;10.33
23643;BME280;11998;55.788;37.572;2023-06-26T02:41:08;98434.06;;;93.20;10.11
23643;BME280;11998;55.788;37.572;2023-06-26T02:42:09;98422.69;;;92.89;10.04
23643;BME280;11998;55.788;37.572;2023-06-26T02:43:09;98416.88;;;91.89;10.41
23643;BME280;11998;55.788;37.572;2023-06-26T02:44:10;98412.41;;;91.80;10.19
23643;BME280;11998;55.788;37.572;2023-06-26T02:45:12;98427.06;;;92.49;10.34
23643;BME280;11998;55.788;37.572;2023-06-26T02:46:13;98427.41;;;93.11;10.34
23643;BME280;11998;55.788;37.572;2023-06-26T02:47:14;98413.84;;;91.08;10.22
23643;BME280;11998;55.788;37.572;2023-06-26T02:48:14;98410.59;;;90.37;10.45
23643;BME280;11998;55.788;37.572;2023-06-26T02:49:15;98416.94;;;90.16;10.50
23643;BME280;11998;55.788;37.572;2023-06-26T02:50:16;98416.75;;;90.98;10.48
23643;BME280;11998;55.788;37.572;2023-06-26T02:51:20;98412.81;;;89.86;10.42
23643;BME280;11998;55.788;37.572;2023-06-26T02:52:20;98421.78;;;91.57;10.51
23643;BME280;11998;55.788;37.572;2023-06-26T02:53:21;98437.34;;;92.56;10.35
23643;BME280;11998;55.788;37.572;2023-06-26T02:54:22;98437.56;;;93.06;9.96
23643;BME280;11998;55.788;37.572;2023-06-26T02:55:22;98439.63;;;91.65;10.31
23643;BME280;11998;55.788;37.572;2023-06-26T02:56:23;98426.47;;;89.97;10.27
23643;BME280;11998;55.788;37.572;2023-06-26T02:57:23;98424.91;;;90.63;10.19
23643;BME280;11998;55.788;37.572;2023-06-26T02:58:24;98419.09;;;90.48;10.21
23643;BME280;11998;55.788;37.572;2023-06-26T02:59:25;98426.19;;;90.52;10.38
23643;BME280;11998;55.788;37.572;2023-06-26T03:00:26;98431.94;;;91.44;10.28
23643;BME280;11998;55.788;37.572;2023-06-26T03:01:30;98438.56;;;92.34;10.13
23643;BME280;11998;55.788;37.572;2023-06-26T03:02:30;98453.81;;;93.32;10.00
23643;BME280;11998;55.788;37.572;2023-06-26T03:03:31;98454.44;;;93.91;10.30
23643;BME280;11998;55.788;37.572;2023-06-26T03:04:40;98461.69;;;94.07;10.16
23643;BME280;11998;55.788;37.572;2023-06-26T03:05:41;98467.19;;;94.73;9.79
23643;BME280;11998;55.788;37.572;2023-06-26T03:06:42;98468.91;;;94.23;10.03
23643;BME280;11998;55.788;37.572;2023-06-26T03:07:43;98478.06;;;94.99;9.86
23643;BME280;11998;55.788;37.572;2023-06-26T03:08:45;98479.16;;;94.83;10.13
23643;BME280;11998;55.788;37.572;2023-06-26T03:09:46;98486.22;;;95.30;10.25
23643;BME280;11998;55.788;37.572;2023-06-26T03:10:47;98483.78;;;95.50;10.02
23643;BME280;11998;55.788;37.572;2023-06-26T03:11:47;98486.97;;;95.75;9.83
23643;BME280;11998;55.788;37.572;2023-06-26T03:12:48;98485.19;;;95.82;9.80
23643;BME280;11998;55.788;37.572;2023-06-26T03:13:49;98494.63;;;96.23;10.23
23643;BME280;11998;55.788;37.572;2023-06-26T03:14:50;98493.06;;;96.22;10.01
23643;BME280;11998;55.788;37.572;2023-06-26T03:15:50;98495.41;;;96.12;9.93
23643;BME280;11998;55.788;37.572;2023-06-26T03:16:53;98478.88;;;96.01;10.36
23643;BME280;11998;55.788;37.572;2023-06-26T03:17:58;98482.56;;;96.00;9.90
23643;BME280;11998;55.788;37.572;2023-06-26T03:18:58;98476.00;;;95.92;9.85
23643;BME280;11998;55.788;37.572;2023-06-26T03:19:59;98479.78;;;96.27;9.93
23643;BME280;11998;55.788;37.572;2023-06-26T03:20:59;98481.22;;;96.26;10.30
23643;BME280;11998;55.788;37.572;2023-06-26T03:22:00;98482.16;;;96.40;10.12
23643;BME280;11998;55.788;37.572;2023-06-26T03:23:01;98481.75;;;96.58;10.19
23643;BME280;11998;55.788;37.572;2023-06-26T03:24:01;98484.72;;;96.69;10.24
23643;BME280;11998;55.788;37.572;2023-06-26T03:25:03;98474.91;;;96.57;9.95
23643;BME280;11998;55.788;37.572;2023-06-26T03:26:03;98484.88;;;96.60;9.94
23643;BME280;11998;55.788;37.572;2023-06-26T03:27:04;98477.22;;;96.82;10.08
23643;BME280;11998;55.788;37.572;2023-06-26T03:28:05;98471.50;;;96.28;9.92
23643;BME280;11998;55.788;37.572;2023-06-26T03:29:06;98469.31;;;96.28;10.04
23643;BME280;11998;55.788;37.572;2023-06-26T03:30:07;98469.16;;;96.26;10.06
23643;BME280;11998;55.788;37.572;2023-06-26T03:31:08;98466.56;;;96.21;9.77
23643;BME280;11998;55.788;37.572;2023-06-26T03:32:08;98468.91;;;96.34;10.07
23643;BME280;11998;55.788;37.572;2023-06-26T03:33:09;98468.78;;;96.20;10.28
23643;BME280;11998;55.788;37.572;2023-06-26T03:34:10;98464.09;;;96.17;9.80
23643;BME280;11998;55.788;37.572;2023-06-26T03:35:10;98464.44;;;96.23;10.06
23643;BME280;11998;55.788;37.572;2023-06-26T03:36:11;98469.44;;;96.42;9.80
23643;BME280;11998;55.788;37.572;2023-06-26T03:37:11;98466.81;;;96.36;9.82
23643;BME280;11998;55.788;37.572;2023-06-26T03:38:12;98471.78;;;96.43;9.94
23643;BME280;11998;55.788;37.572;2023-06-26T03:39:13;98473.34;;;96.44;9.83
23643;BME280;11998;55.788;37.572;2023-06-26T03:40:13;98470.69;;;96.51;10.11
23643;BME280;11998;55.788;37.572;2023-06-26T03:41:14;98471.75;;;96.67;9.89
23643;BME280;11998;55.788;37.572;2023-06-26T03:42:15;98464.66;;;96.51;10.02
23643;BME280;11998;55.788;37.572;2023-06-26T03:43:15;98469.91;;;96.62;10.22
23643;BME280;11998;55.788;37.572;2023-06-26T03:44:18;98468.78;;;96.43;9.92
23643;BME280;11998;55.788;37.572;2023-06-26T03:45:19;98469.44;;;96.54;10.31
23643;BME280;11998;55.788;37.572;2023-06-26T03:46:20;98464.19;;;96.42;10.05
23643;BME280;11998;55.788;37.572;2023-06-26T03:47:20;98466.53;;;96.56;9.74
23643;BME280;11998;55.788;37.572;2023-06-26T03:48:21;98462.09;;;96.10;10.35
23643;BME280;11998;55.788;37.572;2023-06-26T03:49:22;98480.34;;;96.84;9.76
23643;BME280;11998;55.788;37.572;2023-06-26T03:50:22;98474.72;;;97.16;10.05
23643;BME280;11998;55.788;37.572;2023-06-26T03:51:23;98472.16;;;96.98;9.88
23643;BME280;11998;55.788;37.572;2023-06-26T03:52:23;98472.56;;;97.30;10.13
23643;BME280;11998;55.788;37.572;2023-06-26T03:53:24;98470.25;;;97.17;9.93
23643;BME280;11998;55.788;37.572;2023-06-26T03:54:24;98478.16;;;97.61;10.04
23643;BME280;11998;55.788;37.572;2023-06-26T03:55:26;98477.81;;;97.29;10.10
23643;BME280;11998;55.788;37.572;2023-06-26T03:56:26;98477.13;;;97.56;9.98
23643;BME280;11998;55.788;37.572;2023-06-26T03:57:27;98481.91;;;97.87;9.88
23643;BME280;11998;55.788;37.572;2023-06-26T03:58:27;98479.91;;;98.05;9.81
23643;BME280;11998;55.788;37.572;2023-06-26T03:59:28;98484.16;;;98.00;9.97
23643;BME280;11998;55.788;37.572;2023-06-26T04:00:28;98481.28;;;98.02;10.05
23643;BME280;11998;55.788;37.572;2023-06-26T04:01:29;98489.59;;;98.16;9.82
23643;BME280;11998;55.788;37.572;2023-06-26T04:02:29;98484.84;;;97.99;9.82
23643;BME280;11998;55.788;37.572;2023-06-26T04:03:30;98476.97;;;97.94;9.87
23643;BME280;11998;55.788;37.572;2023-06-26T04:04:31;98483.25;;;98.11;9.77
23643;BME280;11998;55.788;37.572;2023-06-26T04:05:32;98486.66;;;98.18;10.03
23643;BME280;11998;55.788;37.572;2023-06-26T04:06:32;98485.09;;;98.17;9.65
23643;BME280;11998;55.788;37.572;2023-06-26T04:07:33;98484.09;;;98.39;10.07
23643;BME280;11998;55.788;37.572;2023-06-26T04:08:36;98478.69;;;98.38;9.75
23643;BME280;11998;55.788;37.572;2023-06-26T04:09:36;98478.13;;;98.28;9.97
23643;BME280;11998;55.788;37.572;2023-06-26T04:10:37;98487.34;;;98.16;9.80
23643;BME280;11998;55.788;37.572;2023-06-26T04:11:38;98480.81;;;98.49;9.98
23643;BME280;11998;55.788;37.572;2023-06-26T04:12:38;98482.63;;;98.54;9.79
23643;BME280;11998;55.788;37.572;2023-06-26T04:13:39;98480.56;;;98.59;10.00
23643;BME280;11998;55.788;37.572;2023-06-26T04:14:40;98475.09;;;98.55;10.04
23643;BME280;11998;55.788;37.572;2023-06-26T04:15:40;98479.97;;;98.76;10.03
23643;BME280;11998;55.788;37.572;2023-06-26T04:16:41;98475.28;;;98.73;9.89
23643;BME280;11998;55.788;37.572;2023-06-26T04:17:41;98487.63;;;99.36;9.51
23643;BME280;11998;55.788;37.572;2023-06-26T04:18:42;98483.75;;;99.65;10.08
23643;BME280;11998;55.788;37.572;2023-06-26T04:19:42;98482.81;;;99.76;10.11
23643;BME280;11998;55.788;37.572;2023-06-26T04:21:03;98483.41;;;99.89;10.13
23643;BME280;11998;55.788;37.572;2023-06-26T04:22:04;98484.75;;;101.02;9.85
23643;BME280;11998;55.788;37.572;2023-06-26T04:23:05;98494.41;;;101.90;9.54
23643;BME280;11998;55.788;37.572;2023-06-26T04:24:06;98491.75;;;101.80;9.96
23643;BME280;11998;55.788;37.572;2023-06-26T04:25:06;98496.28;;;102.19;9.46
23643;BME280;11998;55.788;37.572;2023-06-26T04:26:08;98497.09;;;102.41;9.81
23643;BME280;11998;55.788;37.572;2023-06-26T04:27:08;98491.28;;;102.08;9.58
23643;BME280;11998;55.788;37.572;2023-06-26T04:28:09;98495.16;;;102.50;9.63
23643;BME280;11998;55.788;37.572;2023-06-26T04:29:12;98505.25;;;103.22;9.83
23643;BME280;11998;55.788;37.572;2023-06-26T04:30:13;98488.00;;;102.85;9.62
23643;BME280;11998;55.788;37.572;2023-06-26T04:31:13;98486.94;;;102.54;9.65
23643;BME280;11998;55.788;37.572;2023-06-26T04:32:14;98493.19;;;103.48;9.60
23643;BME280;11998;55.788;37.572;2023-06-26T04:33:14;98491.38;;;104.43;9.29
23643;BME280;11998;55.788;37.572;2023-06-26T04:34:15;98495.91;;;104.98;9.39
23643;BME280;11998;55.788;37.572;2023-06-26T04:35:16;98489.13;;;105.33;9.42
23643;BME280;11998;55.788;37.572;2023-06-26T04:36:17;98491.91;;;105.92;9.75
23643;BME280;11998;55.788;37.572;2023-06-26T04:37:19;98488.97;;;106.78;9.10
23643;BME280;11998;55.788;37.572;2023-06-26T04:38:20;98485.28;;;106.88;9.47
23643;BME280;11998;55.788;37.572;2023-06-26T04:39:21;98498.88;;;107.25;9.25
23643;BME280;11998;55.788;37.572;2023-06-26T04:40:22;98484.28;;;107.78;9.49
23643;BME280;11998;55.788;37.572;2023-06-26T04:41:23;98494.59;;;108.92;9.38
23643;BME280;11998;55.788;37.572;2023-06-26T04:42:23;98491.94;;;109.71;9.23
23643;BME280;11998;55.788;37.572;2023-06-26T04:43:24;98481.28;;;110.38;9.53
23643;BME280;11998;55.788;37.572;2023-06-26T04:44:24;98482.00;;;110.87;9.25
23643;BME280;11998;55.788;37.572;2023-06-26T04:45:25;98480.34;;;111.23;9.36
23643;BME280;11998;55.788;37.572;2023-06-26T04:46:25;98461.44;;;111.96;8.95
23643;BME280;11998;55.788;37.572;2023-06-26T04:47:28;98472.06;;;112.97;9.20
23643;BME280;11998;55.788;37.572;2023-06-26T04:48:28;98476.75;;;113.50;9.14
23643;BME280;11998;55.788;37.572;2023-06-26T04:49:31;98461.03;;;114.13;9.12
23643;BME280;11998;55.788;37.572;2023-06-26T04:50:32;98450.88;;;114.60;9.28
23643;BME280;11998;55.788;37.572;2023-06-26T04:51:34;98451.13;;;114.48;9.34
23643;BME280;11998;55.788;37.572;2023-06-26T04:52:40;98445.81;;;114.82;9.19
23643;BME280;11998;55.788;37.572;2023-06-26T04:53:41;98435.78;;;115.16;9.20
23643;BME280;11998;55.788;37.572;2023-06-26T04:54:41;98432.06;;;115.43;9.06
23643;BME280;11998;55.788;37.572;2023-06-26T04:55:42;98428.91;;;115.45;8.97
23643;BME280;11998;55.788;37.572;2023-06-26T04:56:43;98429.03;;;115.41;9.28
23643;BME280;11998;55.788;37.572;2023-06-26T04:57:47;98419.91;;;116.22;9.18
23643;BME280;11998;55.788;37.572;2023-06-26T04:58:48;98408.53;;;115.52;9.60
23643;BME280;11998;55.788;37.572;2023-06-26T04:59:48;98409.47;;;115.46;9.10
23643;BME280;11998;55.788;37.572;2023-06-26T05:00:49;98402.84;;;115.94;9.54
23643;BME280;11998;55.788;37.572;2023-06-26T05:01:49;98403.78;;;116.17;9.00
23643;BME280;11998;55.788;37.572;2023-06-26T05:02:51;98398.91;;;116.76;9.06
23643;BME280;11998;55.788;37.572;2023-06-26T05:04:00;98395.03;;;116.24;8.93
23643;BME280;11998;55.788;37.572;2023-06-26T05:05:01;98384.28;;;114.61;9.32
23643;BME280;11998;55.788;37.572;2023-06-26T05:06:02;98370.38;;;114.21;9.51
23643;BME280;11998;55.788;37.572;2023-06-26T05:07:03;98381.81;;;115.67;9.05
23643;BME280;11998;55.788;37.572;2023-06-26T05:08:22;98377.78;;;116.02;9.39
23643;BME280;11998;55.788;37.572;2023-06-26T05:09:23;98390.56;;;116.44;9.68
23643;BME280;11998;55.788;37.572;2023-06-26T05:10:24;98393.66;;;117.43;9.35
23643;BME280;11998;55.788;37.572;2023-06-26T05:11:25;98382.91;;;116.41;9.17
23643;BME280;11998;55.788;37.572;2023-06-26T05:12:26;98376.91;;;116.84;9.44
23643;BME280;11998;55.788;37.572;2023-06-26T05:13:26;98385.16;;;117.19;9.19
23643;BME280;11998;55.788;37.572;2023-06-26T05:14:27;98384.03;;;117.06;9.19
23643;BME280;11998;55.788;37.572;2023-06-26T05:15:28;98373.34;;;116.49;9.51
23643;BME280;11998;55.788;37.572;2023-06-26T05:16:28;98380.97;;;117.04;9.20
23643;BME280;11998;55.788;37.572;2023-06-26T05:17:29;98378.03;;;117.23;9.28
23643;BME280;11998;55.788;37.572;2023-06-26T05:18:29;98383.19;;;117.76;9.58
23643;BME280;11998;55.788;37.572;2023-06-26T05:19:30;98384.72;;;118.19;9.35
23643;BME280;11998;55.788;37.572;2023-06-26T05:20:31;98379.81;;;118.66;9.35
23643;BME280;11998;55.788;37.572;2023-06-26T05:21:31;98375.25;;;118.02;9.32
23643;BME280;11998;55.788;37.572;2023-06-26T05:22:32;98375.25;;;118.63;9.33
23643;BME280;11998;55.788;37.572;2023-06-26T05:23:34;98374.38;;;118.66;9.37
23643;BME280;11998;55.788;37.572;2023-06-26T05:24:35;98370.22;;;119.28;9.32
23643;BME280;11998;55.788;37.572;2023-06-26T05:25:37;98368.75;;;120.13;9.51